Time;durP1;ratioP1;P1;durP2;ratioP2;P2;SDS_P1;SDS_P2;PMS_P1;PMS_P2;Temp;Humidity;BMP_temperature;BMP_pressure;BME280_temperature;BME280_humidity;BME280_pressure;Samples;Min_cycle;Max_cycle;Signal;HPM_P1;HPM_P2
2023/04/30 00:00:20;;;;;;;5.20;4.70;;;20.40;50.10;;;;;;4949243;28;20444;-58
2023/04/30 00:02:55;;;;;;;5.50;4.30;;;20.40;50.10;;;;;;4947759;28;20659;-59
2023/04/30 00:05:24;;;;;;;5.93;4.90;;;20.40;50.10;;;;;;4945342;28;21015;-58
2023/04/30 00:07:49;;;;;;;5.27;4.60;;;20.30;50.00;;;;;;4949643;28;20465;-59
2023/04/30 00:10:15;;;;;;;4.70;4.30;;;20.30;50.00;;;;;;4949929;28;20530;-58
2023/04/30 00:12:41;;;;;;;5.50;5.00;;;20.30;49.90;;;;;;4945390;28;20302;-59
2023/04/30 00:15:07;;;;;;;5.77;4.53;;;20.20;49.80;;;;;;4944732;28;20236;-60
2023/04/30 00:17:32;;;;;;;5.80;5.20;;;20.20;49.70;;;;;;4943593;28;20197;-58
2023/04/30 00:19:58;;;;;;;6.80;5.23;;;20.10;49.40;;;;;;4944813;28;20986;-58
2023/04/30 00:22:23;;;;;;;4.97;4.53;;;20.00;49.10;;;;;;4939361;28;20216;-58
2023/04/30 00:24:49;;;;;;;5.67;5.07;;;20.00;49.40;;;;;;4941531;28;20192;-59
2023/04/30 00:27:15;;;;;;;5.40;4.90;;;20.00;49.70;;;;;;4943452;28;20260;-58
2023/04/30 00:29:40;;;;;;;6.07;5.57;;;20.00;49.80;;;;;;4939566;28;20200;-58
2023/04/30 00:32:06;;;;;;;8.67;6.60;;;19.90;49.80;;;;;;4944172;28;20195;-58
2023/04/30 00:34:31;;;;;;;6.00;5.40;;;19.80;49.60;;;;;;4943692;28;20275;-58
2023/04/30 00:36:57;;;;;;;5.97;5.37;;;19.80;49.60;;;;;;4941811;28;20240;-59
2023/04/30 00:39:23;;;;;;;7.23;5.73;;;19.70;50.20;;;;;;4943245;28;20192;-58
2023/04/30 00:41:48;;;;;;;7.40;6.70;;;19.80;50.60;;;;;;4948211;28;20647;-58
2023/04/30 00:44:14;;;;;;;6.97;5.70;;;19.80;50.10;;;;;;4942187;28;20195;-58
2023/04/30 00:46:39;;;;;;;6.20;5.60;;;19.70;50.90;;;;;;4947298;28;20274;-58
2023/04/30 00:49:05;;;;;;;5.87;5.37;;;19.70;50.80;;;;;;4945670;28;20202;-58
2023/04/30 00:51:32;;;;;;;6.20;5.60;;;19.50;51.30;;;;;;4944256;28;20227;-58
2023/04/30 00:54:01;;;;;;;6.13;5.53;;;19.60;51.50;;;;;;4943325;28;20310;-58
2023/04/30 00:56:29;;;;;;;6.73;5.80;;;19.60;51.50;;;;;;4939482;28;20448;-58
2023/04/30 00:58:56;;;;;;;6.30;5.70;;;19.60;51.40;;;;;;4944725;28;20455;-58
2023/04/30 01:01:27;;;;;;;6.10;5.60;;;19.60;51.60;;;;;;4945562;28;20516;-58
2023/04/30 01:03:53;;;;;;;5.73;5.17;;;19.60;51.60;;;;;;4950268;28;20899;-58
2023/04/30 01:06:19;;;;;;;6.67;5.80;;;19.60;51.60;;;;;;4949212;28;20455;-58
2023/04/30 01:08:45;;;;;;;6.50;5.90;;;19.60;51.70;;;;;;4949500;28;20440;-58
2023/04/30 01:11:47;;;;;;;6.83;6.10;;;19.60;51.80;;;;;;4943632;28;20358;-58
2023/04/30 01:14:28;;;;;;;6.57;5.97;;;19.50;51.90;;;;;;4943644;28;20518;-58
2023/04/30 01:17:07;;;;;;;7.27;6.00;;;19.60;52.10;;;;;;4943105;28;20866;-58
2023/04/30 01:19:44;;;;;;;7.10;6.40;;;19.60;52.00;;;;;;4945462;28;20984;-58
2023/04/30 01:22:25;;;;;;;6.47;5.77;;;19.50;51.70;;;;;;4950361;28;20455;-58
2023/04/30 01:25:28;;;;;;;6.10;5.60;;;19.50;51.60;;;;;;4939776;28;21209;-58
2023/04/30 01:28:07;;;;;;;6.53;5.97;;;19.50;51.50;;;;;;4947107;28;20443;-57
2023/04/30 01:30:33;;;;;;;7.80;6.50;;;19.60;51.70;;;;;;4947179;28;20451;-57
2023/04/30 01:32:59;;;;;;;6.80;6.20;;;19.50;51.60;;;;;;4946680;28;20466;-57
2023/04/30 01:35:31;;;;;;;6.80;6.20;;;19.50;51.50;;;;;;4941575;28;20958;-57
2023/04/30 01:38:15;;;;;;;7.87;7.10;;;19.30;51.70;;;;;;4942052;28;20498;-57
2023/04/30 01:40:47;;;;;;;8.53;7.40;;;19.40;52.00;;;;;;4942298;28;20983;-58
2023/04/30 01:43:36;;;;;;;6.60;5.97;;;19.40;52.00;;;;;;4940850;28;20450;-58
2023/04/30 01:46:17;;;;;;;6.90;6.30;;;19.50;51.90;;;;;;4945164;28;20455;-58
2023/04/30 01:49:04;;;;;;;7.40;6.67;;;19.50;52.00;;;;;;4943769;28;20532;-58
2023/04/30 01:51:35;;;;;;;7.37;6.73;;;19.50;51.80;;;;;;4951052;28;20439;-58
2023/04/30 01:54:50;;;;;;;7.00;6.40;;;19.50;51.80;;;;;;4951927;29;20487;-58
2023/04/30 01:57:22;;;;;;;8.10;6.83;;;19.50;51.90;;;;;;4938534;28;20974;-58
2023/04/30 01:59:48;;;;;;;7.73;6.80;;;19.50;51.90;;;;;;4940202;28;20962;-58
2023/04/30 02:02:17;;;;;;;8.00;7.27;;;19.50;51.90;;;;;;4941969;28;20495;-59
2023/04/30 02:04:43;;;;;;;7.77;7.00;;;19.50;51.90;;;;;;4941955;28;20817;-58
2023/04/30 02:07:08;;;;;;;9.87;7.20;;;19.40;51.90;;;;;;4947994;28;20463;-59
2023/04/30 02:09:34;;;;;;;8.97;7.07;;;19.40;52.00;;;;;;4946080;28;20203;-59
2023/04/30 02:12:00;;;;;;;9.50;7.80;;;19.40;52.10;;;;;;4949432;28;20203;-58
2023/04/30 02:14:26;;;;;;;8.00;7.20;;;19.30;51.90;;;;;;4948644;28;20242;-59
2023/04/30 02:16:52;;;;;;;8.43;7.53;;;19.20;51.70;;;;;;4948359;28;20199;-58
2023/04/30 02:19:17;;;;;;;8.70;7.80;;;19.10;52.40;;;;;;4945544;28;20448;-59
2023/04/30 02:21:43;;;;;;;9.43;7.50;;;19.10;51.80;;;;;;4945932;28;20286;-59
2023/04/30 02:24:09;;;;;;;10.10;8.60;;;18.70;52.40;;;;;;4941596;28;20283;-58
2023/04/30 02:26:34;;;;;;;8.27;7.30;;;18.70;52.60;;;;;;4942115;28;20200;-59
2023/04/30 02:29:00;;;;;;;8.37;7.53;;;18.80;52.40;;;;;;4946068;28;20198;-57
2023/04/30 02:31:25;;;;;;;7.73;7.03;;;18.90;52.20;;;;;;4946607;28;20793;-58
2023/04/30 02:33:51;;;;;;;8.40;7.47;;;18.90;51.90;;;;;;4940649;28;20227;-58
2023/04/30 02:36:17;;;;;;;8.20;7.40;;;18.90;51.70;;;;;;4949915;28;20244;-58
2023/04/30 02:38:42;;;;;;;9.17;8.37;;;19.00;51.70;;;;;;4944008;28;20612;-59
2023/04/30 02:41:08;;;;;;;8.67;7.87;;;19.00;51.80;;;;;;4945036;28;20287;-58
2023/04/30 02:43:33;;;;;;;10.87;8.33;;;19.00;51.80;;;;;;4947611;28;20232;-59
2023/04/30 02:45:59;;;;;;;10.80;7.80;;;19.00;52.00;;;;;;4945136;28;20675;-58
2023/04/30 02:48:25;;;;;;;9.40;8.43;;;19.00;52.00;;;;;;4950770;28;20887;-58
2023/04/30 02:50:50;;;;;;;10.57;8.60;;;18.90;52.00;;;;;;4944808;28;20283;-58
2023/04/30 02:53:16;;;;;;;9.27;8.20;;;18.90;52.00;;;;;;4951646;28;20302;-60
2023/04/30 02:55:41;;;;;;;8.90;7.67;;;18.90;52.00;;;;;;4946694;28;20223;-58
2023/04/30 02:58:07;;;;;;;8.50;7.63;;;18.90;52.10;;;;;;4955126;28;20200;-58
2023/04/30 03:00:33;;;;;;;10.97;8.23;;;18.80;52.30;;;;;;4959006;28;20187;-58
2023/04/30 03:02:58;;;;;;;8.80;7.47;;;18.90;52.00;;;;;;4952443;28;20204;-58
2023/04/30 03:05:24;;;;;;;11.00;7.97;;;18.90;52.10;;;;;;4948559;28;20542;-59
2023/04/30 03:07:50;;;;;;;9.13;7.50;;;18.90;51.80;;;;;;4943026;28;20200;-59
2023/04/30 03:10:17;;;;;;;9.23;8.33;;;18.70;52.10;;;;;;4943994;28;20239;-58
2023/04/30 03:12:43;;;;;;;8.53;7.63;;;18.70;51.90;;;;;;4948327;29;20219;-58
2023/04/30 03:15:09;;;;;;;10.40;8.03;;;18.80;51.80;;;;;;4946551;28;20496;-58
2023/04/30 03:17:35;;;;;;;10.37;8.07;;;18.80;51.60;;;;;;4946262;28;20203;-58
2023/04/30 03:20:00;;;;;;;8.57;7.63;;;18.90;51.70;;;;;;4944053;28;20459;-58
2023/04/30 03:22:26;;;;;;;8.40;7.20;;;18.80;51.60;;;;;;4942481;28;20204;-58
2023/04/30 03:24:51;;;;;;;8.03;7.23;;;18.80;51.90;;;;;;4946584;28;20963;-58
2023/04/30 03:27:17;;;;;;;8.20;7.40;;;18.80;52.10;;;;;;4950854;28;20220;-58
2023/04/30 03:29:43;;;;;;;8.50;7.70;;;18.70;52.20;;;;;;4947247;28;20247;-58
2023/04/30 03:32:08;;;;;;;8.10;7.30;;;18.70;52.10;;;;;;4953621;28;20210;-59
2023/04/30 03:34:34;;;;;;;8.10;7.30;;;18.70;51.70;;;;;;4944344;28;20235;-57
2023/04/30 03:37:00;;;;;;;8.57;7.70;;;18.70;51.80;;;;;;4937575;28;20239;-58
2023/04/30 03:39:26;;;;;;;8.77;7.83;;;18.70;52.10;;;;;;4947059;28;20215;-58
2023/04/30 03:41:51;;;;;;;8.90;7.93;;;18.70;52.10;;;;;;4941048;28;20456;-58
2023/04/30 03:44:17;;;;;;;7.90;7.10;;;18.70;51.80;;;;;;4948140;28;20199;-59
2023/04/30 03:46:43;;;;;;;8.57;7.60;;;18.70;51.50;;;;;;4946036;28;20196;-59
2023/04/30 03:49:10;;;;;;;8.13;7.43;;;18.40;51.80;;;;;;4949052;28;20239;-59
2023/04/30 03:51:40;;;;;;;9.07;8.20;;;18.10;52.90;;;;;;4946425;28;20447;-58
2023/04/30 03:54:06;;;;;;;9.10;8.20;;;18.20;52.60;;;;;;4942387;28;20511;-59
2023/04/30 03:56:35;;;;;;;9.10;8.20;;;18.30;52.30;;;;;;4950945;29;20415;-58
2023/04/30 03:59:01;;;;;;;8.97;7.97;;;18.40;52.20;;;;;;4948237;28;20463;-58
2023/04/30 04:01:28;;;;;;;10.47;8.53;;;18.40;52.20;;;;;;4951490;28;20615;-58
2023/04/30 04:03:54;;;;;;;9.70;8.70;;;18.30;52.10;;;;;;4951237;28;20203;-58
2023/04/30 04:06:20;;;;;;;10.30;9.20;;;18.30;52.10;;;;;;4947908;28;20440;-58
2023/04/30 04:08:45;;;;;;;9.30;8.03;;;18.30;52.10;;;;;;4942280;28;20197;-58
2023/04/30 04:11:11;;;;;;;7.93;7.23;;;18.20;52.60;;;;;;4947250;28;20201;-58
2023/04/30 04:13:37;;;;;;;8.60;7.70;;;18.20;52.60;;;;;;4943079;28;20266;-58
2023/04/30 04:16:03;;;;;;;9.87;7.13;;;18.20;52.90;;;;;;4946094;28;20451;-58
2023/04/30 04:18:28;;;;;;;9.73;7.33;;;18.20;52.80;;;;;;4951245;28;20250;-58
2023/04/30 04:20:55;;;;;;;8.37;7.60;;;18.10;53.50;;;;;;4951755;28;20278;-57
2023/04/30 04:23:21;;;;;;;11.90;8.00;;;18.20;52.80;;;;;;4941639;28;20200;-58
2023/04/30 04:25:48;;;;;;;8.53;7.73;;;18.20;53.10;;;;;;4943358;28;20455;-58
2023/04/30 04:28:15;;;;;;;9.03;7.13;;;18.30;52.50;;;;;;4943427;28;20832;-58
2023/04/30 04:30:40;;;;;;;8.50;7.60;;;18.40;52.40;;;;;;4938253;28;20452;-59
2023/04/30 04:33:06;;;;;;;8.87;7.97;;;18.40;52.20;;;;;;4943001;28;20454;-57
2023/04/30 04:35:32;;;;;;;7.50;6.80;;;18.50;52.10;;;;;;4940071;28;20685;-57
2023/04/30 04:37:57;;;;;;;8.90;7.80;;;18.50;52.00;;;;;;4940261;28;20211;-57
2023/04/30 04:40:23;;;;;;;12.00;10.00;;;18.50;51.90;;;;;;4944566;28;20275;-58
2023/04/30 04:42:50;;;;;;;10.40;8.90;;;18.50;52.00;;;;;;4943152;28;20211;-57
2023/04/30 04:45:16;;;;;;;9.53;8.60;;;18.50;52.10;;;;;;4946173;28;20196;-57
2023/04/30 04:47:42;;;;;;;8.80;7.90;;;18.50;52.20;;;;;;4941886;28;20785;-57
2023/04/30 04:50:08;;;;;;;10.60;9.53;;;18.50;52.00;;;;;;4943654;28;20207;-57
2023/04/30 04:52:34;;;;;;;9.53;8.57;;;18.60;52.00;;;;;;4943436;28;20664;-58
2023/04/30 04:55:00;;;;;;;8.00;7.20;;;18.50;52.20;;;;;;4941398;28;20491;-57
2023/04/30 04:57:25;;;;;;;8.47;7.57;;;18.40;53.00;;;;;;4945405;28;20447;-57
2023/04/30 04:59:51;;;;;;;8.43;7.63;;;18.40;52.60;;;;;;4951677;28;20199;-57
2023/04/30 05:02:17;;;;;;;9.37;8.57;;;18.50;52.60;;;;;;4958114;28;20246;-57
2023/04/30 05:04:43;;;;;;;8.70;7.80;;;18.50;52.70;;;;;;4971345;28;20199;-58
2023/04/30 05:07:08;;;;;;;7.87;7.13;;;18.50;52.50;;;;;;4947243;28;20199;-59
2023/04/30 05:09:34;;;;;;;8.70;7.10;;;18.50;52.70;;;;;;4943424;28;20199;-58
2023/04/30 05:12:01;;;;;;;9.20;8.10;;;18.50;52.60;;;;;;4943661;28;20286;-58
2023/04/30 05:14:26;;;;;;;9.67;7.23;;;18.50;52.70;;;;;;4955911;28;20236;-58
2023/04/30 05:16:52;;;;;;;9.20;8.30;;;18.60;52.80;;;;;;4946907;28;20503;-58
2023/04/30 05:19:18;;;;;;;9.50;8.60;;;18.60;52.80;;;;;;4945602;28;20637;-58
2023/04/30 05:21:44;;;;;;;9.30;8.40;;;18.70;52.80;;;;;;4946781;28;20704;-58
2023/04/30 05:24:09;;;;;;;9.23;7.80;;;18.70;52.70;;;;;;4948158;28;20318;-58
2023/04/30 05:26:35;;;;;;;8.80;7.93;;;18.80;52.50;;;;;;4941069;28;20196;-57
2023/04/30 05:29:00;;;;;;;9.00;8.10;;;18.80;52.50;;;;;;4944271;28;20238;-58
2023/04/30 05:31:26;;;;;;;9.53;8.63;;;18.80;52.60;;;;;;4944192;28;20192;-58
2023/04/30 05:33:51;;;;;;;8.93;8.13;;;18.90;52.70;;;;;;4944376;28;22346;-58
2023/04/30 05:36:17;;;;;;;8.47;7.77;;;18.90;52.60;;;;;;4943549;28;20231;-58
2023/04/30 05:38:42;;;;;;;8.90;8.10;;;19.00;52.60;;;;;;4949112;28;20210;-58
2023/04/30 05:41:11;;;;;;;8.40;7.23;;;19.10;52.10;;;;;;4951758;28;20271;-58
2023/04/30 05:43:37;;;;;;;9.03;7.80;;;19.20;51.70;;;;;;4951450;28;20204;-57
2023/04/30 05:46:02;;;;;;;8.43;7.63;;;19.30;52.20;;;;;;4941618;28;20805;-58
2023/04/30 05:48:28;;;;;;;8.53;7.73;;;19.40;51.90;;;;;;4947023;28;20577;-59
2023/04/30 05:50:54;;;;;;;9.53;8.40;;;19.50;51.50;;;;;;4952523;28;20235;-58
2023/04/30 05:53:20;;;;;;;8.73;7.90;;;19.60;51.10;;;;;;4948735;28;20483;-58
2023/04/30 05:55:45;;;;;;;8.37;7.57;;;19.50;51.00;;;;;;4942150;28;20707;-58
2023/04/30 05:58:11;;;;;;;9.00;8.20;;;19.50;51.10;;;;;;4938614;28;20640;-58
2023/04/30 06:00:38;;;;;;;7.93;7.23;;;19.70;51.10;;;;;;4951611;29;20251;-58
2023/04/30 06:03:03;;;;;;;9.30;8.40;;;19.70;50.50;;;;;;4947019;28;20197;-58
2023/04/30 06:05:29;;;;;;;8.57;7.67;;;19.70;50.30;;;;;;4952038;28;20798;-57
2023/04/30 06:07:54;;;;;;;6.33;5.83;;;19.60;49.90;;;;;;4952440;29;20251;-58
2023/04/30 06:10:20;;;;;;;8.47;7.67;;;19.40;50.90;;;;;;4945939;28;20203;-58
2023/04/30 06:12:46;;;;;;;8.80;7.77;;;19.50;51.00;;;;;;4953849;28;20188;-58
2023/04/30 06:15:11;;;;;;;8.40;7.50;;;19.60;50.40;;;;;;4955911;28;20311;-58
2023/04/30 06:17:37;;;;;;;8.33;7.53;;;19.70;50.30;;;;;;4954763;29;20198;-58
2023/04/30 06:20:05;;;;;;;8.03;7.33;;;19.80;50.10;;;;;;4948974;28;20255;-57
2023/04/30 06:22:32;;;;;;;9.50;8.53;;;19.90;50.40;;;;;;4943792;28;20652;-58
2023/04/30 06:24:57;;;;;;;8.67;7.87;;;20.00;50.00;;;;;;4947966;28;20947;-57
2023/04/30 06:27:26;;;;;;;9.70;7.50;;;19.90;49.60;;;;;;4944896;28;20533;-58
2023/04/30 06:29:52;;;;;;;7.33;6.70;;;19.80;50.30;;;;;;4946098;28;20279;-58
2023/04/30 06:32:21;;;;;;;8.33;7.23;;;19.50;51.10;;;;;;4938921;28;20467;-58
2023/04/30 06:34:47;;;;;;;9.27;7.77;;;19.30;50.90;;;;;;4955824;28;20525;-58
2023/04/30 06:37:12;;;;;;;7.60;6.93;;;19.40;51.00;;;;;;4955821;29;20495;-58
2023/04/30 06:39:38;;;;;;;6.80;6.20;;;19.60;50.90;;;;;;4950988;28;20222;-58
2023/04/30 06:42:04;;;;;;;7.50;6.80;;;19.10;51.40;;;;;;4955385;28;20204;-58
2023/04/30 06:44:29;;;;;;;7.03;6.43;;;19.10;51.30;;;;;;4955767;29;20198;-58
2023/04/30 06:46:55;;;;;;;7.13;6.53;;;19.20;51.30;;;;;;4955674;29;20192;-58
2023/04/30 06:49:20;;;;;;;8.90;7.57;;;19.30;51.70;;;;;;4952070;28;20195;-58
2023/04/30 06:51:46;;;;;;;9.60;6.93;;;19.50;51.60;;;;;;4963116;28;20188;-58
2023/04/30 06:54:13;;;;;;;9.47;8.30;;;19.50;51.40;;;;;;4955702;28;20706;-58
2023/04/30 06:56:38;;;;;;;7.47;6.77;;;19.40;50.90;;;;;;4955607;29;20192;-58
2023/04/30 06:59:04;;;;;;;8.00;7.20;;;19.20;50.50;;;;;;4952509;28;20433;-58
2023/04/30 07:01:29;;;;;;;7.30;6.60;;;19.10;50.60;;;;;;4954004;29;20260;-58
2023/04/30 07:03:55;;;;;;;7.67;6.90;;;19.20;51.40;;;;;;4955510;29;20262;-58
2023/04/30 07:06:21;;;;;;;7.40;6.70;;;19.40;51.00;;;;;;4955415;28;20199;-58
2023/04/30 07:08:47;;;;;;;7.67;6.97;;;19.40;50.70;;;;;;4955432;29;20728;-58
2023/04/30 07:11:12;;;;;;;7.93;7.13;;;19.30;51.00;;;;;;4953528;28;20200;-58
2023/04/30 07:13:38;;;;;;;8.13;7.33;;;19.10;51.20;;;;;;4961665;28;20594;-58
2023/04/30 07:16:04;;;;;;;7.80;7.00;;;19.40;51.20;;;;;;4973230;28;20199;-58
2023/04/30 07:18:30;;;;;;;7.80;7.10;;;19.80;50.10;;;;;;4973305;28;20605;-58
2023/04/30 07:20:56;;;;;;;6.27;5.77;;;19.90;49.50;;;;;;4965569;28;20588;-58
2023/04/30 07:23:21;;;;;;;6.77;6.17;;;19.10;50.80;;;;;;4944908;28;20283;-58
2023/04/30 07:25:47;;;;;;;8.60;7.80;;;19.40;50.60;;;;;;4949725;29;20207;-58
2023/04/30 07:28:13;;;;;;;6.53;5.93;;;19.70;49.60;;;;;;4945405;28;20200;-57
2023/04/30 07:30:39;;;;;;;7.20;6.60;;;19.30;50.10;;;;;;4949427;28;20447;-58
2023/04/30 07:33:07;;;;;;;8.63;7.70;;;19.40;49.80;;;;;;4954495;29;20199;-58
2023/04/30 07:35:32;;;;;;;6.57;6.07;;;19.90;49.70;;;;;;4954564;28;20485;-58
2023/04/30 07:37:58;;;;;;;6.67;5.90;;;20.00;48.90;;;;;;4953061;28;20439;-58
2023/04/30 07:40:23;;;;;;;7.57;6.90;;;19.70;48.60;;;;;;4954109;28;20192;-58
2023/04/30 07:42:49;;;;;;;6.50;5.87;;;19.30;49.50;;;;;;4951678;28;20220;-58
2023/04/30 07:45:15;;;;;;;6.07;5.50;;;19.50;49.10;;;;;;4950626;28;20211;-58
2023/04/30 07:47:40;;;;;;;7.23;6.43;;;19.80;48.30;;;;;;4954805;29;20283;-58
2023/04/30 07:50:06;;;;;;;7.10;6.40;;;20.10;48.30;;;;;;4954560;28;20276;-58
2023/04/30 07:52:32;;;;;;;7.63;6.93;;;20.40;48.30;;;;;;4961988;28;20200;-57
2023/04/30 07:54:57;;;;;;;6.50;6.00;;;20.80;47.90;;;;;;4952189;28;21074;-58
2023/04/30 07:57:25;;;;;;;7.07;6.37;;;21.20;46.70;;;;;;4952150;29;20275;-58
2023/04/30 07:59:51;;;;;;;6.90;6.30;;;21.20;46.00;;;;;;4956046;28;20207;-58
2023/04/30 08:02:16;;;;;;;7.23;6.50;;;21.20;46.20;;;;;;4954330;29;20796;-58
2023/04/30 08:04:42;;;;;;;6.47;5.93;;;21.10;46.70;;;;;;4954709;29;20526;-57
2023/04/30 08:07:08;;;;;;;6.67;6.07;;;21.30;46.00;;;;;;4954373;29;20203;-57
2023/04/30 08:09:33;;;;;;;6.20;5.70;;;21.40;45.80;;;;;;4954385;28;20196;-58
2023/04/30 08:12:00;;;;;;;5.63;5.23;;;21.70;45.20;;;;;;4950064;28;20223;-57
2023/04/30 08:14:26;;;;;;;6.20;5.70;;;21.70;45.30;;;;;;4954198;29;20224;-58
2023/04/30 08:16:51;;;;;;;5.30;4.80;;;21.50;44.30;;;;;;4954238;29;20439;-59
2023/04/30 08:19:17;;;;;;;6.03;5.17;;;21.60;44.70;;;;;;4954091;29;20270;-57
2023/04/30 08:21:43;;;;;;;5.30;4.90;;;21.70;43.80;;;;;;4950586;28;20526;-58
2023/04/30 08:24:08;;;;;;;4.90;4.40;;;22.00;44.10;;;;;;4954103;29;20195;-57
2023/04/30 08:26:34;;;;;;;4.27;3.87;;;22.20;42.30;;;;;;4953240;28;20691;-58
2023/04/30 08:28:59;;;;;;;5.20;4.40;;;22.10;43.30;;;;;;4953968;29;20210;-58
2023/04/30 08:31:25;;;;;;;5.20;4.70;;;22.20;42.20;;;;;;4952450;28;20620;-58
2023/04/30 08:33:50;;;;;;;5.50;4.77;;;22.20;42.30;;;;;;4953873;29;20254;-58
2023/04/30 08:36:16;;;;;;;5.20;3.80;;;22.50;42.30;;;;;;4953835;28;20236;-57
2023/04/30 08:38:42;;;;;;;3.90;3.60;;;22.50;40.50;;;;;;4952105;28;20239;-58
2023/04/30 08:41:11;;;;;;;4.40;3.97;;;22.30;39.60;;;;;;4953861;28;20203;-57
2023/04/30 08:43:38;;;;;;;4.20;3.80;;;22.00;40.10;;;;;;4952284;28;20203;-58
2023/04/30 08:46:04;;;;;;;3.50;3.20;;;21.80;40.50;;;;;;4953554;29;20785;-57
2023/04/30 08:48:30;;;;;;;2.87;2.67;;;21.70;40.00;;;;;;4950246;29;20451;-58
2023/04/30 08:51:03;;;;;;;3.50;3.30;;;21.40;39.80;;;;;;4946337;28;20456;-58
2023/04/30 08:53:30;;;;;;;5.00;3.30;;;21.00;39.10;;;;;;4943409;28;20451;-58
2023/04/30 08:55:57;;;;;;;3.13;2.93;;;20.80;40.90;;;;;;4935443;28;20526;-58
2023/04/30 08:58:23;;;;;;;2.90;2.70;;;20.70;38.70;;;;;;4936670;28;20459;-58
2023/04/30 09:00:48;;;;;;;2.57;2.37;;;20.90;39.30;;;;;;4945714;28;20535;-58
2023/04/30 09:03:14;;;;;;;2.87;2.67;;;20.80;39.60;;;;;;4937304;29;20452;-58
2023/04/30 09:05:40;;;;;;;2.70;2.50;;;20.40;39.50;;;;;;4941747;28;20203;-58
2023/04/30 09:08:09;;;;;;;3.00;2.30;;;20.30;39.80;;;;;;4952923;28;20439;-58
2023/04/30 09:10:35;;;;;;;3.10;2.80;;;20.30;39.80;;;;;;4951002;28;20203;-58
2023/04/30 09:13:05;;;;;;;2.80;2.60;;;20.40;39.80;;;;;;4952201;28;20812;-58
2023/04/30 09:15:32;;;;;;;2.97;2.70;;;20.50;40.50;;;;;;4962127;28;20705;-58
2023/04/30 09:18:17;;;;;;;3.30;3.00;;;20.70;40.20;;;;;;4952369;28;20470;-58
2023/04/30 09:21:03;;;;;;;2.93;2.73;;;20.90;40.60;;;;;;4937575;29;20487;-58
2023/04/30 09:23:29;;;;;;;2.40;2.20;;;21.10;40.30;;;;;;4944414;28;20458;-58
2023/04/30 09:25:55;;;;;;;2.90;2.70;;;21.50;40.00;;;;;;4952661;28;20431;-58
2023/04/30 09:28:23;;;;;;;3.53;3.23;;;21.50;38.70;;;;;;4951115;28;20444;-58
2023/04/30 09:30:50;;;;;;;3.83;3.07;;;21.40;39.60;;;;;;4952675;29;20522;-58
2023/04/30 09:33:15;;;;;;;2.67;2.47;;;21.70;38.90;;;;;;4950804;28;20424;-58
2023/04/30 09:35:41;;;;;;;2.87;2.67;;;21.90;38.30;;;;;;4952613;29;20467;-58
2023/04/30 09:38:07;;;;;;;2.63;2.43;;;21.90;38.40;;;;;;4949225;28;20647;-58
2023/04/30 09:40:41;;;;;;;2.73;2.53;;;22.20;38.00;;;;;;4952745;29;20278;-58
2023/04/30 09:43:07;;;;;;;2.93;2.73;;;22.10;37.90;;;;;;4951405;28;20920;-58
2023/04/30 09:45:46;;;;;;;2.40;2.30;;;22.00;37.90;;;;;;4952551;28;20431;-58
2023/04/30 09:48:14;;;;;;;4.00;3.00;;;22.20;38.40;;;;;;4951898;28;20459;-58
2023/04/30 09:50:41;;;;;;;2.93;2.70;;;22.10;37.50;;;;;;4952395;28;20448;-58
2023/04/30 09:53:13;;;;;;;3.40;2.40;;;21.70;37.00;;;;;;4956175;28;20440;-58
2023/04/30 09:55:42;;;;;;;3.93;2.50;;;21.90;37.90;;;;;;4944995;28;20463;-58
2023/04/30 09:58:10;;;;;;;3.30;3.00;;;22.30;38.40;;;;;;4937409;29;20972;-58
2023/04/30 10:00:36;;;;;;;3.20;2.90;;;22.30;37.10;;;;;;4950568;28;20495;-58
2023/04/30 10:03:20;;;;;;;2.90;2.70;;;22.10;36.70;;;;;;4952143;29;20928;-58
2023/04/30 10:05:55;;;;;;;2.60;2.40;;;22.10;37.30;;;;;;4952234;28;20494;-59
2023/04/30 10:08:29;;;;;;;4.07;3.07;;;22.00;37.20;;;;;;4947922;28;20454;-59
2023/04/30 10:11:15;;;;;;;3.40;3.10;;;21.90;37.50;;;;;;4951788;28;20453;-59
2023/04/30 10:14:04;;;;;;;3.97;3.60;;;21.90;37.20;;;;;;4951413;28;20486;-58
2023/04/30 10:16:39;;;;;;;4.80;3.90;;;21.80;37.00;;;;;;4952215;28;20427;-58
2023/04/30 10:19:21;;;;;;;4.20;3.80;;;21.80;37.60;;;;;;4952238;28;20463;-58
2023/04/30 10:21:47;;;;;;;4.27;3.87;;;21.70;37.40;;;;;;4952009;29;20858;-58
2023/04/30 10:24:20;;;;;;;4.17;3.43;;;21.70;37.80;;;;;;4949625;28;20518;-58
2023/04/30 10:26:52;;;;;;;4.20;3.80;;;21.60;37.40;;;;;;4950521;28;20867;-58
2023/04/30 10:29:20;;;;;;;4.50;4.20;;;21.50;38.60;;;;;;4951683;28;20546;-58
2023/04/30 10:31:55;;;;;;;3.77;3.47;;;21.70;38.30;;;;;;4940815;29;20443;-58
2023/04/30 10:34:29;;;;;;;4.10;3.80;;;21.60;38.20;;;;;;4954266;28;20486;-58
2023/04/30 10:37:19;;;;;;;3.50;3.30;;;21.70;38.60;;;;;;4952477;29;21013;-58
2023/04/30 10:39:45;;;;;;;3.80;3.43;;;21.70;38.50;;;;;;4952112;28;20432;-58
2023/04/30 10:42:12;;;;;;;3.30;3.10;;;21.90;38.70;;;;;;4951837;28;20427;-58
2023/04/30 10:44:41;;;;;;;5.70;3.57;;;22.10;37.90;;;;;;4950550;28;20456;-59
2023/04/30 10:47:09;;;;;;;7.17;3.93;;;22.00;36.90;;;;;;4951015;28;20557;-58
2023/04/30 10:49:39;;;;;;;5.47;3.77;;;22.20;38.00;;;;;;4951630;28;20460;-59
2023/04/30 10:52:08;;;;;;;4.37;4.07;;;22.40;38.40;;;;;;4960406;28;20520;-58
2023/04/30 10:54:48;;;;;;;4.87;3.80;;;22.10;37.30;;;;;;4954024;29;20487;-58
2023/04/30 10:57:18;;;;;;;4.73;3.53;;;22.00;37.20;;;;;;4954013;28;20431;-59
2023/04/30 10:59:50;;;;;;;4.27;3.97;;;22.00;37.80;;;;;;4961545;28;20439;-58
2023/04/30 11:02:37;;;;;;;4.30;3.90;;;22.00;37.40;;;;;;4952865;28;20440;-58
2023/04/30 11:05:06;;;;;;;3.87;3.57;;;22.00;37.70;;;;;;4951757;29;20431;-58
2023/04/30 11:07:32;;;;;;;3.37;2.90;;;22.10;39.80;;;;;;4948780;28;20452;-58
2023/04/30 11:09:59;;;;;;;3.60;3.30;;;22.20;38.60;;;;;;4944282;28;20463;-59
2023/04/30 11:12:29;;;;;;;4.37;3.37;;;22.20;37.80;;;;;;4953940;28;20513;-58
2023/04/30 11:15:12;;;;;;;3.83;3.50;;;22.10;38.10;;;;;;4955156;28;20502;-58
2023/04/30 11:17:38;;;;;;;3.13;2.93;;;21.80;37.20;;;;;;4955503;28;20440;-58
2023/04/30 11:20:04;;;;;;;3.67;3.20;;;21.70;37.80;;;;;;4955365;28;20788;-58
2023/04/30 11:22:34;;;;;;;3.30;3.10;;;21.60;38.10;;;;;;4962599;28;20242;-59
2023/04/30 11:25:11;;;;;;;3.33;3.00;;;21.80;38.60;;;;;;4955360;28;20451;-58
2023/04/30 11:27:45;;;;;;;3.60;3.30;;;21.90;38.80;;;;;;4954885;29;20435;-59
2023/04/30 11:30:13;;;;;;;5.00;3.93;;;22.00;37.60;;;;;;4955220;29;20475;-59
2023/04/30 11:32:40;;;;;;;3.30;3.10;;;22.10;37.60;;;;;;4947793;28;20490;-59
2023/04/30 11:35:06;;;;;;;3.23;3.03;;;22.20;38.30;;;;;;4953461;28;20487;-59
2023/04/30 11:37:34;;;;;;;3.40;3.20;;;22.50;38.50;;;;;;4953836;28;20438;-59
2023/04/30 11:40:01;;;;;;;3.60;3.30;;;22.70;37.70;;;;;;4957544;28;20454;-59
2023/04/30 11:42:29;;;;;;;3.10;2.83;;;22.80;37.00;;;;;;4944009;29;20867;-58
2023/04/30 11:45:07;;;;;;;3.20;2.90;;;22.50;36.40;;;;;;4948594;28;20499;-59
2023/04/30 11:47:44;;;;;;;3.50;2.87;;;22.20;36.90;;;;;;4950439;28;20463;-58
2023/04/30 11:50:12;;;;;;;3.83;2.73;;;22.00;37.40;;;;;;4946195;28;20490;-59
2023/04/30 11:52:39;;;;;;;3.57;3.33;;;21.80;38.60;;;;;;4954945;28;20443;-59
2023/04/30 11:55:06;;;;;;;3.20;2.90;;;21.80;38.70;;;;;;4948324;28;20523;-58
2023/04/30 11:57:50;;;;;;;3.70;3.40;;;21.60;38.70;;;;;;4946275;28;20492;-58
2023/04/30 12:00:27;;;;;;;6.30;5.60;;;21.80;38.20;;;;;;4949195;28;20542;-58
2023/04/30 12:02:54;;;;;;;4.33;3.53;;;22.00;37.80;;;;;;4944778;29;20895;-58
2023/04/30 12:05:22;;;;;;;5.67;5.17;;;21.90;37.40;;;;;;4948390;29;20530;-59
2023/04/30 12:07:56;;;;;;;3.90;3.40;;;21.70;38.40;;;;;;4946438;28;20440;-58
2023/04/30 12:10:22;;;;;;;3.33;3.03;;;21.80;38.20;;;;;;4944924;28;20546;-59
2023/04/30 12:12:50;;;;;;;3.53;3.33;;;21.90;38.60;;;;;;4953182;29;20451;-58
2023/04/30 12:15:27;;;;;;;3.47;3.17;;;22.00;39.40;;;;;;4947039;28;20857;-58
2023/04/30 12:17:58;;;;;;;3.50;3.20;;;22.20;38.20;;;;;;4955098;28;20501;-58
2023/04/30 12:20:27;;;;;;;3.90;3.60;;;22.20;37.50;;;;;;4964859;28;20448;-59
2023/04/30 12:22:53;;;;;;;3.37;3.17;;;22.30;37.90;;;;;;4952684;28;20455;-59
2023/04/30 12:25:20;;;;;;;3.10;2.90;;;22.30;37.90;;;;;;4953885;29;20431;-59
2023/04/30 12:27:48;;;;;;;6.70;5.63;;;22.20;37.80;;;;;;4950817;28;20425;-58
2023/04/30 12:30:18;;;;;;;3.73;3.43;;;22.30;38.40;;;;;;4968651;28;20458;-59
2023/04/30 12:32:45;;;;;;;4.63;3.40;;;22.40;38.10;;;;;;4959524;28;20452;-58
2023/04/30 12:35:19;;;;;;;3.23;2.93;;;22.20;37.80;;;;;;4937783;28;20531;-58
2023/04/30 12:37:51;;;;;;;3.30;2.97;;;22.00;38.00;;;;;;4947505;28;20862;-58
2023/04/30 12:40:19;;;;;;;3.30;2.93;;;21.80;38.50;;;;;;4950811;28;20456;-58
2023/04/30 12:42:47;;;;;;;3.47;3.27;;;22.00;38.70;;;;;;4939244;29;20438;-59
2023/04/30 12:45:50;;;;;;;3.37;3.07;;;22.00;38.40;;;;;;4938026;28;20811;-59
2023/04/30 12:48:19;;;;;;;3.27;2.90;;;22.40;38.70;;;;;;4949202;28;20538;-64
2023/04/30 12:51:00;;;;;;;3.27;2.97;;;22.70;38.90;;;;;;4946330;28;20443;-59